Time;durP1;ratioP1;P1;durP2;ratioP2;P2;SDS_P1;SDS_P2;PMS_P1;PMS_P2;Temp;Humidity;BMP_temperature;BMP_pressure;BME280_temperature;BME280_humidity;BME280_pressure;Samples;Min_cycle;Max_cycle;Signal;HPM_P1;HPM_P2
2021/09/28 00:00:13;;;;;;;7.20;1.00;;;12.60;99.90;;;;;;5009422;28;20405;-70
2021/09/28 00:02:39;;;;;;;10.63;0.98;;;12.70;99.90;;;;;;5006466;28;20056;-70
2021/09/28 00:05:05;;;;;;;12.75;1.15;;;12.70;99.90;;;;;;5010831;28;20450;-69
2021/09/28 00:07:30;;;;;;;4.90;0.70;;;12.80;99.90;;;;;;5010708;28;20136;-70
2021/09/28 00:09:56;;;;;;;9.15;1.23;;;12.90;99.90;;;;;;5009883;28;20038;-71
2021/09/28 00:12:21;;;;;;;8.20;1.05;;;12.90;99.90;;;;;;5010996;28;20022;-70
2021/09/28 00:14:47;;;;;;;5.53;0.70;;;12.90;99.90;;;;;;5010087;28;20037;-70
2021/09/28 00:17:13;;;;;;;10.32;0.80;;;12.90;99.90;;;;;;5010614;28;20037;-70
2021/09/28 00:19:40;;;;;;;11.65;1.02;;;12.90;99.90;;;;;;5031141;28;20083;-70
2021/09/28 00:22:06;;;;;;;4.90;0.75;;;12.90;99.90;;;;;;5016841;28;20022;-70
2021/09/28 00:24:33;;;;;;;10.13;1.02;;;12.80;99.90;;;;;;5010590;28;20038;-70
2021/09/28 00:27:00;;;;;;;5.45;1.27;;;12.80;99.90;;;;;;5007691;28;20508;-72
2021/09/28 00:29:26;;;;;;;6.28;1.40;;;12.80;99.90;;;;;;5009013;28;20030;-70
2021/09/28 00:31:51;;;;;;;5.43;0.98;;;12.70;99.90;;;;;;5008170;28;20041;-70
2021/09/28 00:34:17;;;;;;;9.43;1.00;;;12.70;99.90;;;;;;5008657;28;20038;-71
2021/09/28 00:36:43;;;;;;;8.00;1.15;;;12.70;99.90;;;;;;5009848;28;20033;-70
2021/09/28 00:39:08;;;;;;;13.45;1.88;;;12.70;99.90;;;;;;5009780;28;20027;-70
2021/09/28 00:41:34;;;;;;;7.40;1.00;;;12.60;99.90;;;;;;5010148;28;20034;-70
2021/09/28 00:43:59;;;;;;;5.53;0.98;;;12.60;99.90;;;;;;5009814;28;20042;-70
2021/09/28 00:46:25;;;;;;;9.73;1.40;;;12.60;99.90;;;;;;5008795;28;20042;-70
2021/09/28 00:48:52;;;;;;;9.82;0.82;;;12.50;99.90;;;;;;5009353;28;20215;-70
2021/09/28 00:51:18;;;;;;;9.52;1.52;;;12.50;99.90;;;;;;5008480;28;20049;-70
2021/09/28 00:53:45;;;;;;;4.63;0.65;;;12.40;99.90;;;;;;5009574;28;20698;-69
2021/09/28 00:56:14;;;;;;;8.85;1.20;;;12.40;99.90;;;;;;5010509;28;20053;-70
2021/09/28 00:58:40;;;;;;;12.90;1.30;;;12.40;99.90;;;;;;5008704;28;20117;-70
2021/09/28 01:01:07;;;;;;;7.03;0.75;;;12.40;99.90;;;;;;5008133;28;20364;-70
2021/09/28 01:03:34;;;;;;;9.65;1.00;;;12.40;99.90;;;;;;5010152;28;20100;-71
2021/09/28 01:06:00;;;;;;;6.72;1.65;;;12.30;99.90;;;;;;5010036;28;20041;-70
2021/09/28 01:08:27;;;;;;;9.55;0.98;;;12.30;99.90;;;;;;5009830;28;20053;-70
2021/09/28 01:10:54;;;;;;;12.73;1.73;;;12.30;99.90;;;;;;5009252;28;20038;-70
2021/09/28 01:13:20;;;;;;;8.73;1.13;;;12.20;99.90;;;;;;5009013;28;20030;-71
2021/09/28 01:16:01;;;;;;;6.15;0.65;;;12.20;99.90;;;;;;5008068;28;20041;-70
2021/09/28 01:18:28;;;;;;;11.07;1.70;;;12.30;99.90;;;;;;5008580;28;20038;-70
2021/09/28 01:20:54;;;;;;;10.43;1.08;;;12.20;99.90;;;;;;5009591;28;20029;-71
2021/09/28 01:23:20;;;;;;;10.30;1.33;;;12.20;99.90;;;;;;5010447;28;20061;-70
2021/09/28 01:25:45;;;;;;;7.75;0.88;;;12.20;99.90;;;;;;5009413;28;20561;-72
2021/09/28 01:28:11;;;;;;;3.83;1.00;;;12.20;99.90;;;;;;5006189;28;20513;-70
2021/09/28 01:30:37;;;;;;;7.13;0.90;;;12.20;99.90;;;;;;5008591;28;20038;-70
2021/09/28 01:33:03;;;;;;;12.68;1.80;;;12.10;99.90;;;;;;5007842;28;20088;-70
2021/09/28 01:35:29;;;;;;;6.43;1.40;;;12.10;99.90;;;;;;5009648;28;20030;-70
2021/09/28 01:37:56;;;;;;;13.52;1.85;;;12.10;99.90;;;;;;5008246;28;20084;-71
2021/09/28 01:40:21;;;;;;;4.32;0.73;;;12.00;99.90;;;;;;5009969;28;20112;-69
2021/09/28 01:42:47;;;;;;;6.72;1.10;;;12.00;99.90;;;;;;5013344;28;20490;-70
2021/09/28 01:45:12;;;;;;;5.00;0.88;;;12.00;99.90;;;;;;5013230;28;20054;-69
2021/09/28 01:47:39;;;;;;;7.43;1.63;;;12.00;99.90;;;;;;5013437;28;20065;-70
2021/09/28 01:50:06;;;;;;;6.63;1.27;;;12.00;99.90;;;;;;5012779;28;20033;-69
2021/09/28 01:52:36;;;;;;;6.85;0.90;;;12.00;99.90;;;;;;5013332;28;20054;-69
2021/09/28 01:55:04;;;;;;;6.15;1.58;;;12.00;99.90;;;;;;5007480;28;20048;-69
2021/09/28 01:57:29;;;;;;;7.75;1.95;;;12.00;99.90;;;;;;5011774;28;20486;-69
2021/09/28 01:59:55;;;;;;;13.25;1.30;;;12.00;99.90;;;;;;5012429;28;20041;-70
2021/09/28 02:02:20;;;;;;;9.93;1.30;;;11.90;99.90;;;;;;5012872;28;20109;-69
2021/09/28 02:04:46;;;;;;;11.98;2.08;;;11.90;99.90;;;;;;5013501;28;20514;-69
2021/09/28 02:07:11;;;;;;;9.93;1.45;;;11.90;99.90;;;;;;5012736;28;20453;-69
2021/09/28 02:09:37;;;;;;;11.20;1.45;;;12.00;99.90;;;;;;5012502;28;20034;-69
2021/09/28 02:12:03;;;;;;;10.80;1.33;;;11.90;99.90;;;;;;5015526;28;20037;-70
2021/09/28 02:14:29;;;;;;;7.47;1.10;;;11.90;99.90;;;;;;5011608;28;20041;-69
2021/09/28 02:16:56;;;;;;;9.05;1.77;;;11.90;99.90;;;;;;5013065;28;20030;-70
2021/09/28 02:19:22;;;;;;;3.20;1.17;;;11.90;99.90;;;;;;5011483;28;20034;-69
2021/09/28 02:21:48;;;;;;;5.28;1.33;;;11.80;99.90;;;;;;5010894;28;20037;-69
2021/09/28 02:24:15;;;;;;;6.75;1.88;;;11.80;99.90;;;;;;5012910;28;20181;-70
2021/09/28 02:26:41;;;;;;;6.50;1.30;;;11.80;99.90;;;;;;5012763;28;20038;-69
2021/09/28 02:29:07;;;;;;;9.75;1.35;;;11.80;99.90;;;;;;5010593;28;20030;-69
2021/09/28 02:31:33;;;;;;;9.40;1.10;;;11.80;99.90;;;;;;5009209;28;20060;-69
2021/09/28 02:33:58;;;;;;;7.72;1.60;;;11.70;99.90;;;;;;5012854;28;20056;-69
2021/09/28 02:36:24;;;;;;;10.95;1.45;;;11.70;99.90;;;;;;5012677;28;20446;-69
2021/09/28 02:38:49;;;;;;;8.23;2.05;;;11.70;99.90;;;;;;5012775;28;20041;-69
2021/09/28 02:41:15;;;;;;;6.93;1.10;;;11.70;99.90;;;;;;5010450;28;20070;-69
2021/09/28 02:43:41;;;;;;;6.97;1.55;;;11.70;99.90;;;;;;5012007;28;20107;-69
2021/09/28 02:46:07;;;;;;;11.82;1.45;;;11.70;99.90;;;;;;5012493;28;20118;-70
2021/09/28 02:48:32;;;;;;;8.23;1.30;;;11.70;99.90;;;;;;5011203;28;20050;-69
2021/09/28 02:50:58;;;;;;;7.70;1.40;;;11.70;99.90;;;;;;5012314;28;20041;-69
2021/09/28 02:53:24;;;;;;;8.15;1.15;;;11.60;99.90;;;;;;5011332;28;20037;-69
2021/09/28 02:55:50;;;;;;;9.55;1.17;;;11.60;99.90;;;;;;5011293;28;20026;-69
2021/09/28 02:58:16;;;;;;;11.32;1.30;;;11.50;99.90;;;;;;5012121;28;20034;-69
2021/09/28 03:00:41;;;;;;;10.43;1.50;;;11.50;99.90;;;;;;5010749;28;20466;-69
2021/09/28 03:03:07;;;;;;;9.27;1.60;;;11.50;99.90;;;;;;5011768;28;20034;-70
2021/09/28 03:05:32;;;;;;;7.78;1.65;;;11.50;99.90;;;;;;5012204;28;20034;-69
2021/09/28 03:07:58;;;;;;;18.00;2.42;;;11.50;99.90;;;;;;5008126;28;20038;-69
2021/09/28 03:10:24;;;;;;;12.40;2.20;;;11.40;99.90;;;;;;5026061;22;20483;-61
2021/09/28 03:12:49;;;;;;;7.85;1.35;;;11.40;99.90;;;;;;5026817;28;20034;-60
2021/09/28 03:15:15;;;;;;;10.75;1.58;;;11.40;99.90;;;;;;5029468;28;20030;-60
2021/09/28 03:17:40;;;;;;;11.73;1.60;;;11.40;99.90;;;;;;5030680;28;20129;-60
2021/09/28 03:20:08;;;;;;;7.10;1.85;;;11.40;99.90;;;;;;5030085;28;20112;-62
2021/09/28 03:22:34;;;;;;;11.45;2.47;;;11.30;99.90;;;;;;5030144;28;20041;-63
2021/09/28 03:25:00;;;;;;;8.73;1.50;;;11.40;99.90;;;;;;5028511;28;20025;-60
2021/09/28 03:27:25;;;;;;;5.68;2.05;;;11.40;99.90;;;;;;5030262;28;20125;-61
2021/09/28 03:29:51;;;;;;;11.07;1.67;;;11.30;99.90;;;;;;5028943;28;20660;-62
2021/09/28 03:32:16;;;;;;;9.55;1.55;;;11.30;99.90;;;;;;5030146;28;20034;-63
2021/09/28 03:34:42;;;;;;;8.45;1.25;;;11.30;99.90;;;;;;5030457;28;20045;-60
2021/09/28 03:37:07;;;;;;;5.03;1.80;;;11.30;99.90;;;;;;5030582;28;20041;-60
2021/09/28 03:39:33;;;;;;;5.78;1.65;;;11.30;99.90;;;;;;5029386;28;20037;-61
2021/09/28 03:41:59;;;;;;;9.07;1.48;;;11.30;99.90;;;;;;5030416;28;20392;-63
2021/09/28 03:44:25;;;;;;;8.45;2.10;;;11.30;99.90;;;;;;5030035;28;20063;-61
2021/09/28 03:46:50;;;;;;;9.20;2.08;;;11.30;99.90;;;;;;5030233;28;20034;-60
2021/09/28 03:49:16;;;;;;;11.25;2.13;;;11.30;99.90;;;;;;5029988;28;20398;-62
2021/09/28 03:51:41;;;;;;;10.43;1.90;;;11.30;99.90;;;;;;5029678;28;20045;-61
2021/09/28 03:54:07;;;;;;;14.60;2.03;;;11.20;99.90;;;;;;5029992;28;20030;-60
2021/09/28 03:56:33;;;;;;;9.55;1.92;;;11.30;99.90;;;;;;5029944;28;20030;-61
2021/09/28 03:58:58;;;;;;;11.25;2.47;;;11.30;99.90;;;;;;5029960;28;20056;-62
2021/09/28 04:01:24;;;;;;;12.27;1.80;;;11.30;99.90;;;;;;5029571;28;20096;-60
2021/09/28 04:03:49;;;;;;;11.25;2.97;;;11.20;99.90;;;;;;5028345;28;20125;-60
2021/09/28 04:06:15;;;;;;;11.05;2.05;;;11.30;99.90;;;;;;5030137;28;20404;-62
2021/09/28 04:08:41;;;;;;;13.50;2.53;;;11.20;99.90;;;;;;5028999;28;20033;-60
2021/09/28 04:11:06;;;;;;;9.65;1.75;;;11.20;99.90;;;;;;5029951;28;20093;-60
2021/09/28 04:13:32;;;;;;;7.00;1.80;;;11.30;99.90;;;;;;5026287;28;20030;-61
2021/09/28 04:15:59;;;;;;;7.57;2.42;;;11.30;99.90;;;;;;5028499;28;20032;-62
2021/09/28 04:18:25;;;;;;;7.85;2.20;;;11.30;99.90;;;;;;5025668;28;20029;-60
2021/09/28 04:20:51;;;;;;;10.45;1.90;;;11.20;99.90;;;;;;5028065;28;20408;-59
2021/09/28 04:23:16;;;;;;;13.32;2.78;;;11.20;99.90;;;;;;5029575;28;20098;-61
2021/09/28 04:25:42;;;;;;;8.90;2.50;;;11.20;99.90;;;;;;5025282;28;20457;-62
2021/09/28 04:28:09;;;;;;;8.52;2.20;;;11.20;99.90;;;;;;5029378;28;20037;-60
2021/09/28 04:30:35;;;;;;;14.68;2.63;;;11.20;99.90;;;;;;5031645;28;20024;-60
2021/09/28 04:33:00;;;;;;;8.63;2.08;;;11.10;99.90;;;;;;5033734;28;20496;-60
2021/09/28 04:35:28;;;;;;;10.25;2.72;;;11.10;99.90;;;;;;5032650;28;20030;-63
2021/09/28 04:37:53;;;;;;;11.02;3.25;;;11.10;99.90;;;;;;5031354;28;20484;-62
2021/09/28 04:40:19;;;;;;;7.60;1.67;;;11.10;99.90;;;;;;5037832;28;20068;-61
2021/09/28 04:42:45;;;;;;;14.85;2.78;;;11.10;99.90;;;;;;5029042;28;20488;-61
2021/09/28 04:45:10;;;;;;;12.98;2.97;;;11.00;99.90;;;;;;5029581;28;20422;-60
2021/09/28 04:47:37;;;;;;;7.45;1.92;;;11.10;99.90;;;;;;5033964;28;20500;-62
2021/09/28 04:50:03;;;;;;;7.95;1.45;;;11.00;99.90;;;;;;5033899;28;20511;-63
2021/09/28 04:52:29;;;;;;;8.75;1.80;;;11.00;99.90;;;;;;5035561;28;20087;-60
2021/09/28 04:54:55;;;;;;;9.48;1.60;;;11.00;99.90;;;;;;5036853;28;20120;-61
2021/09/28 04:57:21;;;;;;;10.73;2.75;;;11.00;99.90;;;;;;5032054;28;20481;-62
2021/09/28 04:59:48;;;;;;;13.57;2.20;;;11.00;99.90;;;;;;5022615;28;20041;-60
2021/09/28 05:02:14;;;;;;;8.88;1.73;;;11.00;99.90;;;;;;5026614;28;20132;-60
2021/09/28 05:04:40;;;;;;;9.05;1.80;;;11.00;99.90;;;;;;5023963;28;20033;-60
2021/09/28 05:07:06;;;;;;;10.45;2.25;;;11.00;99.90;;;;;;5025375;28;20036;-61
2021/09/28 05:09:32;;;;;;;11.18;1.50;;;10.90;99.90;;;;;;5024226;28;20033;-60
2021/09/28 05:11:59;;;;;;;14.48;2.28;;;10.90;99.90;;;;;;5025611;28;20393;-60
2021/09/28 05:14:26;;;;;;;7.07;1.35;;;11.00;99.90;;;;;;5026224;28;20048;-60
2021/09/28 05:16:52;;;;;;;15.57;1.73;;;10.90;99.90;;;;;;5024773;28;20033;-60
2021/09/28 05:19:17;;;;;;;11.30;1.70;;;10.90;99.90;;;;;;5025265;28;20040;-65
2021/09/28 05:21:43;;;;;;;5.80;2.08;;;10.90;99.90;;;;;;5024968;28;20809;-63
2021/09/28 05:24:09;;;;;;;11.13;1.70;;;10.90;99.90;;;;;;5024317;28;20088;-61
2021/09/28 05:26:34;;;;;;;11.38;1.70;;;10.90;99.90;;;;;;5026177;28;20045;-61
2021/09/28 05:29:01;;;;;;;4.95;1.83;;;10.90;99.90;;;;;;5025468;28;20385;-60
2021/09/28 05:31:27;;;;;;;7.32;1.58;;;10.90;99.90;;;;;;5025970;28;20072;-61
2021/09/28 05:33:53;;;;;;;12.50;1.55;;;10.90;99.90;;;;;;5025079;28;20045;-61
2021/09/28 05:36:19;;;;;;;8.48;1.63;;;10.80;99.90;;;;;;5025826;28;20056;-64
2021/09/28 05:38:44;;;;;;;13.43;2.08;;;10.90;99.90;;;;;;5025271;28;20087;-61
2021/09/28 05:41:10;;;;;;;14.40;2.60;;;10.90;99.90;;;;;;5025569;28;20048;-60
2021/09/28 05:43:36;;;;;;;10.60;1.50;;;10.90;99.90;;;;;;5026122;28;20037;-60
2021/09/28 05:46:02;;;;;;;6.93;1.80;;;10.90;99.90;;;;;;5024216;28;20401;-60
2021/09/28 05:48:28;;;;;;;7.57;1.60;;;10.90;99.90;;;;;;5025777;28;20048;-61
2021/09/28 05:50:53;;;;;;;8.63;1.95;;;10.90;99.90;;;;;;5024940;28;20041;-63
2021/09/28 05:53:19;;;;;;;8.52;1.27;;;10.90;99.90;;;;;;5025601;28;20115;-61
2021/09/28 05:55:45;;;;;;;10.30;2.40;;;10.90;99.90;;;;;;5024748;28;20033;-61
2021/09/28 05:58:10;;;;;;;12.70;2.05;;;10.90;99.90;;;;;;5025550;28;20117;-63
2021/09/28 06:00:36;;;;;;;6.82;1.67;;;10.90;99.90;;;;;;5025199;28;20049;-61
2021/09/28 06:03:02;;;;;;;8.93;1.42;;;11.00;99.90;;;;;;5023350;28;20463;-63
2021/09/28 06:05:28;;;;;;;11.38;1.65;;;11.00;99.90;;;;;;5026239;28;20046;-64
2021/09/28 06:07:53;;;;;;;14.95;1.70;;;11.00;99.90;;;;;;5021066;28;20404;-62
2021/09/28 06:10:19;;;;;;;6.53;1.58;;;11.00;99.90;;;;;;5021415;28;20055;-61
2021/09/28 06:12:45;;;;;;;14.32;2.78;;;11.00;99.90;;;;;;5024944;28;20485;-61
2021/09/28 06:15:11;;;;;;;9.82;1.35;;;11.00;99.90;;;;;;5022045;28;20052;-60
2021/09/28 06:17:37;;;;;;;9.00;1.88;;;11.10;99.90;;;;;;5025406;28;20041;-61
2021/09/28 06:20:03;;;;;;;14.52;1.65;;;11.10;99.90;;;;;;5022521;28;20045;-60
2021/09/28 06:22:28;;;;;;;11.85;1.67;;;11.10;99.90;;;;;;5025680;28;20026;-61
2021/09/28 06:24:57;;;;;;;6.75;1.10;;;11.10;99.90;;;;;;5023910;28;20393;-65
2021/09/28 06:27:24;;;;;;;11.15;1.73;;;11.10;99.90;;;;;;5025315;28;20026;-61
2021/09/28 06:29:50;;;;;;;4.10;1.30;;;11.10;99.90;;;;;;5028637;28;20654;-60
2021/09/28 06:32:18;;;;;;;5.50;1.35;;;11.10;99.90;;;;;;5027366;28;20067;-64
2021/09/28 06:34:44;;;;;;;6.65;1.10;;;11.20;99.90;;;;;;5028492;28;20540;-64
2021/09/28 06:37:10;;;;;;;14.15;2.10;;;11.30;99.90;;;;;;5028315;28;20084;-60
2021/09/28 06:39:36;;;;;;;4.43;1.13;;;11.20;99.90;;;;;;5027575;28;20026;-60
2021/09/28 06:42:01;;;;;;;9.63;3.35;;;11.30;99.90;;;;;;5028041;28;20034;-59
2021/09/28 06:44:28;;;;;;;9.05;1.35;;;11.30;99.90;;;;;;5028389;28;20115;-62
2021/09/28 06:46:54;;;;;;;4.85;1.70;;;11.30;99.90;;;;;;5027441;28;20053;-60
2021/09/28 06:49:20;;;;;;;7.57;1.05;;;11.40;99.90;;;;;;5027817;28;20037;-63
2021/09/28 06:51:46;;;;;;;9.98;1.23;;;11.40;99.90;;;;;;5028682;28;20053;-62
2021/09/28 06:54:12;;;;;;;3.17;1.40;;;11.40;99.90;;;;;;5028159;28;20063;-59
2021/09/28 06:56:38;;;;;;;7.32;1.40;;;11.50;99.90;;;;;;5028249;28;20125;-60
2021/09/28 06:59:08;;;;;;;6.47;1.20;;;11.50;99.90;;;;;;5026428;28;20037;-63
2021/09/28 07:01:35;;;;;;;5.80;1.55;;;11.60;99.90;;;;;;5027518;28;20056;-62
2021/09/28 07:04:01;;;;;;;14.43;1.60;;;11.70;99.90;;;;;;5028065;28;20033;-62
2021/09/28 07:06:27;;;;;;;5.07;1.30;;;11.70;99.90;;;;;;5028125;28;20037;-61
2021/09/28 07:08:53;;;;;;;6.88;1.55;;;11.80;99.90;;;;;;5026178;28;20036;-65
2021/09/28 07:11:19;;;;;;;8.23;1.17;;;11.90;99.90;;;;;;5027530;28;20029;-61
2021/09/28 07:13:46;;;;;;;8.63;2.22;;;11.90;99.90;;;;;;5027850;28;20036;-61
2021/09/28 07:16:13;;;;;;;12.05;1.65;;;12.00;99.90;;;;;;5027251;28;20037;-60
2021/09/28 07:18:38;;;;;;;14.18;2.55;;;12.10;99.90;;;;;;5028108;28;20056;-60
2021/09/28 07:21:04;;;;;;;11.30;1.45;;;12.20;99.90;;;;;;5026989;28;20030;-63
2021/09/28 07:23:30;;;;;;;7.78;1.95;;;12.20;99.90;;;;;;5027419;28;20091;-61
2021/09/28 07:25:55;;;;;;;7.13;1.10;;;12.30;99.90;;;;;;5027296;28;20037;-62
2021/09/28 07:28:21;;;;;;;6.82;1.83;;;12.40;99.90;;;;;;5026005;28;20041;-62
2021/09/28 07:30:47;;;;;;;9.57;1.38;;;12.50;99.90;;;;;;5027139;28;20037;-61
2021/09/28 07:33:12;;;;;;;16.35;1.98;;;12.60;99.90;;;;;;5027190;28;20042;-61
2021/09/28 07:35:38;;;;;;;6.85;1.27;;;12.60;99.90;;;;;;5027233;28;20033;-62
2021/09/28 07:38:03;;;;;;;6.72;1.15;;;12.80;99.90;;;;;;5027151;28;20034;-60
2021/09/28 07:40:29;;;;;;;5.32;1.70;;;12.90;99.90;;;;;;5026292;28;20473;-61
2021/09/28 07:42:55;;;;;;;6.75;1.45;;;13.00;99.90;;;;;;5027477;28;20033;-62
2021/09/28 07:45:21;;;;;;;13.88;2.22;;;13.00;99.90;;;;;;5025087;28;20042;-63
2021/09/28 07:47:46;;;;;;;12.20;2.55;;;13.20;99.90;;;;;;5027188;28;20513;-63
2021/09/28 07:50:12;;;;;;;5.38;0.80;;;13.20;99.90;;;;;;5023598;28;20033;-61
2021/09/28 07:52:41;;;;;;;11.93;1.73;;;13.30;99.90;;;;;;5027155;28;20030;-61
2021/09/28 07:55:06;;;;;;;4.90;1.27;;;13.40;99.90;;;;;;5027292;28;20057;-61
2021/09/28 07:57:32;;;;;;;5.55;1.17;;;13.50;99.90;;;;;;5026544;28;20037;-64
2021/09/28 07:59:57;;;;;;;10.73;1.55;;;13.60;99.90;;;;;;5026651;28;20405;-62
2021/09/28 08:02:23;;;;;;;6.13;1.60;;;13.70;99.90;;;;;;5026703;28;20029;-60
2021/09/28 08:04:49;;;;;;;8.27;1.85;;;13.70;99.90;;;;;;5026933;28;20108;-61
2021/09/28 08:07:17;;;;;;;6.40;1.23;;;13.70;99.90;;;;;;5026865;28;20039;-63
2021/09/28 08:09:42;;;;;;;8.70;1.73;;;13.80;99.90;;;;;;5025689;28;20124;-61
2021/09/28 08:12:09;;;;;;;6.65;1.42;;;13.80;99.90;;;;;;5029885;28;20196;-59
2021/09/28 08:14:35;;;;;;;3.50;1.15;;;13.90;99.90;;;;;;5026090;28;20041;-61
2021/09/28 08:17:01;;;;;;;9.38;1.35;;;14.00;99.90;;;;;;5027079;28;20033;-64
2021/09/28 08:19:26;;;;;;;6.53;1.65;;;14.00;99.90;;;;;;5026588;28;20041;-60
2021/09/28 08:21:52;;;;;;;3.70;1.08;;;14.10;99.90;;;;;;5026172;28;20396;-60
2021/09/28 08:24:18;;;;;;;7.38;1.70;;;14.10;99.90;;;;;;5026383;28;20038;-61
2021/09/28 08:29:29;;;;;;;7.57;1.20;;;14.30;99.90;;;;;;5026827;28;20098;-62
2021/09/28 08:31:55;;;;;;;9.10;1.63;;;14.50;99.90;;;;;;5028957;28;20049;-62
2021/09/28 08:34:21;;;;;;;7.60;1.35;;;14.50;99.90;;;;;;5027203;28;20166;-63
2021/09/28 08:36:47;;;;;;;4.50;0.80;;;14.70;99.90;;;;;;5026480;28;20033;-61
2021/09/28 08:39:15;;;;;;;9.85;1.27;;;14.70;99.90;;;;;;5026921;28;20047;-61
2021/09/28 08:41:46;;;;;;;10.88;1.75;;;14.70;99.90;;;;;;5025880;28;20228;-62
2021/09/28 08:44:15;;;;;;;6.10;1.35;;;14.80;99.90;;;;;;5026915;28;20116;-62
2021/09/28 08:46:45;;;;;;;10.10;1.23;;;14.90;99.90;;;;;;5026250;28;20103;-61
2021/09/28 08:49:13;;;;;;;7.97;1.20;;;15.10;99.90;;;;;;5025381;28;20029;-63
2021/09/28 08:51:40;;;;;;;8.73;1.52;;;15.20;99.90;;;;;;5027729;28;20037;-62
2021/09/28 08:54:06;;;;;;;9.95;1.05;;;15.20;99.90;;;;;;5038774;28;20060;-63
2021/09/28 08:56:31;;;;;;;4.95;1.08;;;15.20;99.90;;;;;;5036329;28;20041;-62
2021/09/28 08:59:02;;;;;;;11.23;1.25;;;15.30;99.90;;;;;;5034465;28;20060;-61
2021/09/28 09:01:32;;;;;;;14.38;2.15;;;15.30;99.90;;;;;;5028643;28;20042;-65
2021/09/28 09:04:18;;;;;;;11.48;1.83;;;15.50;99.90;;;;;;5027028;28;20116;-61
2021/09/28 09:06:45;;;;;;;6.80;0.85;;;15.60;99.90;;;;;;5024663;28;20540;-63
2021/09/28 09:09:12;;;;;;;6.15;1.08;;;15.70;99.90;;;;;;5025028;28;20120;-61
2021/09/28 09:11:43;;;;;;;8.18;1.05;;;15.80;99.90;;;;;;5024745;28;20130;-61
2021/09/28 09:14:26;;;;;;;7.28;2.25;;;15.90;99.90;;;;;;5024386;28;20064;-61
2021/09/28 09:16:54;;;;;;;7.65;1.48;;;16.00;99.90;;;;;;5025305;28;20396;-62
2021/09/28 09:19:26;;;;;;;8.75;0.95;;;16.00;99.90;;;;;;5026161;28;20063;-63
2021/09/28 09:21:54;;;;;;;5.97;1.30;;;16.10;99.90;;;;;;5025293;28;20037;-61
2021/09/28 09:24:41;;;;;;;4.38;1.10;;;16.00;99.90;;;;;;5026206;28;20425;-61
2021/09/28 09:27:07;;;;;;;7.47;1.50;;;16.00;99.90;;;;;;5025617;28;20029;-61
2021/09/28 09:29:33;;;;;;;9.02;1.85;;;16.10;99.90;;;;;;5025388;28;20029;-62
2021/09/28 09:31:58;;;;;;;5.40;0.95;;;16.20;99.90;;;;;;5025405;28;20485;-62
2021/09/28 09:34:25;;;;;;;8.05;1.33;;;16.30;99.90;;;;;;5024415;28;20057;-60
2021/09/28 09:37:00;;;;;;;11.82;2.08;;;16.30;99.90;;;;;;5025819;28;20040;-62
2021/09/28 09:39:26;;;;;;;5.50;1.00;;;16.40;99.90;;;;;;5025278;28;20053;-62
2021/09/28 09:42:06;;;;;;;11.00;1.63;;;16.50;99.90;;;;;;5023493;28;20584;-62
2021/09/28 09:44:32;;;;;;;10.52;1.48;;;16.70;99.90;;;;;;5025601;28;20477;-62
2021/09/28 09:47:00;;;;;;;4.63;1.00;;;16.80;99.90;;;;;;5024121;28;20490;-61
2021/09/28 09:49:31;;;;;;;5.60;0.70;;;16.90;99.90;;;;;;5025350;28;20040;-62
2021/09/28 09:52:03;;;;;;;7.78;2.15;;;16.90;99.90;;;;;;5025108;28;20071;-61
2021/09/28 09:54:40;;;;;;;10.70;1.25;;;17.00;99.90;;;;;;5025293;28;20036;-61
2021/09/28 09:57:08;;;;;;;10.32;0.95;;;17.10;99.90;;;;;;5023511;28;20056;-61
2021/09/28 09:59:35;;;;;;;9.93;0.90;;;17.10;99.90;;;;;;5025646;28;20037;-62
2021/09/28 10:02:05;;;;;;;8.90;2.10;;;17.10;99.90;;;;;;5026303;28;20045;-61
2021/09/28 10:04:31;;;;;;;8.80;1.10;;;17.20;99.90;;;;;;5028005;28;20136;-61
2021/09/28 10:07:01;;;;;;;10.43;1.10;;;17.30;99.90;;;;;;5028467;28;20079;-63
2021/09/28 10:09:38;;;;;;;7.85;1.30;;;17.30;99.90;;;;;;5027266;28;20517;-61
2021/09/28 10:12:06;;;;;;;6.90;0.73;;;17.30;99.90;;;;;;5027154;28;20116;-61
2021/09/28 10:14:44;;;;;;;8.60;1.35;;;17.40;99.90;;;;;;5029330;28;20048;-62
2021/09/28 10:17:12;;;;;;;5.47;0.77;;;17.40;99.90;;;;;;5026155;28;20091;-62
2021/09/28 10:19:40;;;;;;;7.05;1.33;;;17.40;99.90;;;;;;5027386;28;20100;-62
2021/09/28 10:22:08;;;;;;;8.35;1.88;;;17.40;99.90;;;;;;5019103;28;20042;-62
2021/09/28 10:24:35;;;;;;;7.43;1.48;;;17.50;99.90;;;;;;5024293;28;20040;-62
2021/09/28 10:27:00;;;;;;;8.48;1.25;;;17.50;99.90;;;;;;5024824;28;20414;-61
2021/09/28 10:29:51;;;;;;;5.43;0.90;;;17.60;99.90;;;;;;5026227;28;20562;-61
2021/09/28 10:32:23;;;;;;;;;;;17.70;99.90;;;;;;5026195;28;20034;-61
2021/09/28 10:35:10;;;;;;;11.70;1.25;;;17.70;99.90;;;;;;5020106;28;20277;-61
2021/09/28 10:37:42;;;;;;;5.95;0.93;;;17.80;99.90;;;;;;5024196;28;20124;-61
2021/09/28 10:40:14;;;;;;;5.18;1.23;;;17.80;99.90;;;;;;5023252;28;20048;-61
2021/09/28 10:43:02;;;;;;;8.48;1.27;;;17.90;99.90;;;;;;5023688;28;20038;-62
2021/09/28 10:45:28;;;;;;;5.85;0.80;;;17.90;99.90;;;;;;5021833;28;20054;-62
2021/09/28 10:47:57;;;;;;;9.63;0.70;;;17.80;99.90;;;;;;5022864;28;20040;-62
2021/09/28 10:50:27;;;;;;;5.57;0.80;;;17.90;99.90;;;;;;5023580;28;20526;-60
2021/09/28 10:52:55;;;;;;;6.38;0.95;;;17.90;99.90;;;;;;5022591;28;20049;-62
2021/09/28 10:55:23;;;;;;;4.72;1.23;;;17.90;99.90;;;;;;5043747;28;20044;-62
2021/09/28 10:57:55;;;;;;;8.70;1.42;;;17.90;99.90;;;;;;5024652;28;20037;-62
2021/09/28 11:00:21;;;;;;;8.55;0.85;;;17.90;99.90;;;;;;5024654;28;20060;-62
2021/09/28 11:02:50;;;;;;;5.40;1.13;;;17.90;99.90;;;;;;5026619;28;20128;-61
2021/09/28 11:05:28;;;;;;;4.85;0.90;;;17.90;99.90;;;;;;5025989;28;20071;-61
2021/09/28 11:07:54;;;;;;;8.13;0.98;;;18.00;99.90;;;;;;5025923;28;20503;-61
2021/09/28 11:10:19;;;;;;;7.45;1.38;;;18.00;99.90;;;;;;5027750;28;20776;-61
2021/09/28 11:12:46;;;;;;;7.45;0.95;;;18.10;99.90;;;;;;5026820;28;20025;-61
2021/09/28 11:15:21;;;;;;;7.35;1.60;;;18.20;99.90;;;;;;5026148;28;20324;-61
2021/09/28 11:17:48;;;;;;;10.07;0.93;;;18.20;99.90;;;;;;5025909;28;20393;-61
2021/09/28 11:20:30;;;;;;;5.93;0.60;;;18.30;99.90;;;;;;5027310;28;20111;-61
2021/09/28 11:23:04;;;;;;;8.82;1.90;;;18.30;99.90;;;;;;5027609;28;20035;-61
2021/09/28 11:25:32;;;;;;;4.82;0.77;;;18.20;99.90;;;;;;5028465;28;20041;-61
2021/09/28 11:28:04;;;;;;;7.05;0.70;;;18.30;99.90;;;;;;5027337;28;20385;-61
2021/09/28 11:30:34;;;;;;;5.30;0.90;;;18.30;99.90;;;;;;5025848;28;20103;-61
2021/09/28 11:33:08;;;;;;;10.20;1.67;;;18.40;99.90;;;;;;5023688;28;20299;-61
2021/09/28 11:35:35;;;;;;;11.52;0.85;;;18.50;99.90;;;;;;5044531;28;20485;-62
2021/09/28 11:38:05;;;;;;;7.82;0.50;;;18.40;99.90;;;;;;5027105;28;20030;-61
2021/09/28 11:40:37;;;;;;;2.88;0.98;;;18.40;99.90;;;;;;5025924;28;20052;-62
2021/09/28 11:43:24;;;;;;;7.20;1.15;;;18.50;99.90;;;;;;5024288;28;20241;-62
2021/09/28 11:46:14;;;;;;;9.23;0.70;;;18.50;99.90;;;;;;5026640;28;20516;-62
2021/09/28 11:48:41;;;;;;;;;;;18.50;99.90;;;;;;5032105;28;20034;-64
2021/09/28 11:51:09;;;;;;;5.35;0.80;;;18.40;99.90;;;;;;5029931;28;19928;-60
2021/09/28 11:53:40;;;;;;;5.00;1.05;;;18.40;99.90;;;;;;5031398;28;20504;-61
2021/09/28 11:56:07;;;;;;;6.80;0.90;;;18.40;99.90;;;;;;5030221;28;20026;-62
2021/09/28 11:58:36;;;;;;;10.13;0.55;;;18.40;99.90;;;;;;5030347;28;20041;-61
2021/09/28 12:01:06;;;;;;;6.75;0.77;;;18.50;99.90;;;;;;5029315;28;20052;-61
2021/09/28 12:03:34;;;;;;;5.97;0.65;;;18.70;99.90;;;;;;5028399;28;20056;-62
2021/09/28 12:08:41;;;;;;;6.47;0.98;;;18.70;99.90;;;;;;5027860;28;20111;-63
2021/09/28 12:11:07;;;;;;;8.25;1.00;;;18.70;99.90;;;;;;5027028;28;20444;-61
2021/09/28 12:13:33;;;;;;;2.50;0.77;;;18.70;99.90;;;;;;5027174;28;20558;-65
2021/09/28 12:16:07;;;;;;;9.15;1.67;;;18.80;99.90;;;;;;5026459;28;20133;-62
2021/09/28 12:18:34;;;;;;;3.10;0.32;;;18.80;99.90;;;;;;5026175;28;20071;-63
2021/09/28 12:21:10;;;;;;;8.57;1.80;;;18.70;99.90;;;;;;5028256;28;20029;-63
2021/09/28 12:23:36;;;;;;;3.13;0.57;;;18.60;99.90;;;;;;5025183;28;20037;-63
2021/09/28 12:26:01;;;;;;;4.65;0.60;;;18.70;99.90;;;;;;5027329;28;20041;-64
2021/09/28 12:28:30;;;;;;;7.78;1.15;;;18.60;99.90;;;;;;5027904;28;20042;-63
2021/09/28 12:31:02;;;;;;;4.82;0.85;;;18.60;99.90;;;;;;5025053;28;20388;-61
2021/09/28 12:33:28;;;;;;;6.20;1.02;;;18.70;99.90;;;;;;5026810;28;20041;-61
2021/09/28 12:35:58;;;;;;;5.18;0.75;;;18.60;99.90;;;;;;5026189;28;20391;-61
2021/09/28 12:38:25;;;;;;;5.30;1.23;;;18.60;99.90;;;;;;5026518;28;20103;-62
2021/09/28 12:40:51;;;;;;;7.00;0.70;;;18.50;99.90;;;;;;5024030;28;20124;-64
2021/09/28 12:43:24;;;;;;;5.45;1.05;;;18.60;99.90;;;;;;5026168;28;20117;-61
2021/09/28 12:45:55;;;;;;;3.65;0.93;;;18.60;99.90;;;;;;5025845;28;20030;-62
2021/09/28 12:48:42;;;;;;;1.23;0.40;;;18.60;99.90;;;;;;5025953;28;20116;-62
2021/09/28 12:51:14;;;;;;;5.45;0.98;;;18.50;99.90;;;;;;5025577;28;20485;-61